ANA410 RJSK-RJTT
Flight info
| Callsign | ANA410 |
|---|---|
| Flight time | 1h 16m |
| Altitude | 30000 |
| Route | YTE Y32 RUBIS Y10 GODIN |
| Aircraft | B772/L-SDE2E3FGHIJ5LORVWXY/LB1D1 |
Departure
| Time | 2026-05-06 12:55 |
|---|---|
| Airport | Akita Airport (RJSK) |
Arrival
| Time | 2026-05-06 14:12 |
|---|---|
| Airport | Tokyo Haneda International Airport (RJTT) |
| Time | Latitude | Longitude | Altitude | Speed | Heading |
|---|---|---|---|---|---|
| 2026-05-06 12:27 | 39.61249 | 140.22010 | 316 ft | 0 kts | 186° |
| 2026-05-06 12:47 | 39.61264 | 140.22012 | 316 ft | 4 kts | 188° |
| 2026-05-06 12:47 | 39.61290 | 140.22018 | 316 ft | 4 kts | 192° |
| 2026-05-06 12:47 | 39.61317 | 140.22026 | 316 ft | 4 kts | 196° |
| 2026-05-06 12:48 | 39.61342 | 140.22037 | 315 ft | 4 kts | 202° |
| 2026-05-06 12:48 | 39.61366 | 140.22053 | 314 ft | 4 kts | 221° |
| 2026-05-06 12:48 | 39.61378 | 140.22076 | 312 ft | 3 kts | 275° |
| 2026-05-06 12:48 | 39.61378 | 140.22077 | 312 ft | 3 kts | 276° |
| 2026-05-06 12:51 | 39.61380 | 140.22059 | 313 ft | 8 kts | 276° |
| 2026-05-06 12:51 | 39.61390 | 140.21941 | 314 ft | 14 kts | 276° |
| 2026-05-06 12:51 | 39.61400 | 140.21811 | 312 ft | 15 kts | 275° |
| 2026-05-06 12:51 | 39.61414 | 140.21671 | 312 ft | 16 kts | 277° |
| 2026-05-06 12:52 | 39.61427 | 140.21533 | 311 ft | 16 kts | 276° |
| 2026-05-06 12:52 | 39.61439 | 140.21393 | 313 ft | 16 kts | 276° |
| 2026-05-06 12:52 | 39.61452 | 140.21251 | 313 ft | 16 kts | 277° |
| 2026-05-06 12:52 | 39.61465 | 140.21105 | 314 ft | 16 kts | 277° |
| 2026-05-06 12:53 | 39.61479 | 140.20960 | 315 ft | 16 kts | 276° |
| 2026-05-06 12:53 | 39.61492 | 140.20815 | 316 ft | 16 kts | 276° |
| 2026-05-06 12:53 | 39.61505 | 140.20670 | 315 ft | 16 kts | 277° |
| 2026-05-06 12:53 | 39.61519 | 140.20525 | 314 ft | 16 kts | 277° |
| 2026-05-06 12:54 | 39.61557 | 140.20428 | 312 ft | 13 kts | 339° |
| 2026-05-06 12:54 | 39.61637 | 140.20431 | 313 ft | 9 kts | 6° |
| 2026-05-06 12:54 | 39.61684 | 140.20479 | 313 ft | 9 kts | 72° |
| 2026-05-06 12:54 | 39.61684 | 140.20523 | 314 ft | 0 kts | 96° |
| 2026-05-06 12:55 | 39.61673 | 140.20663 | 314 ft | 47 kts | 96° |
| 2026-05-06 12:55 | 39.61596 | 140.21506 | 314 ft | 140 kts | 97° |
| 2026-05-06 12:55 | 39.61439 | 140.23010 | 845 ft | 173 kts | 98° |
| 2026-05-06 12:55 | 39.61117 | 140.24477 | 1868 ft | 177 kts | 128° |
| 2026-05-06 12:56 | 39.60090 | 140.25368 | 2294 ft | 189 kts | 172° |
| 2026-05-06 12:56 | 39.58714 | 140.25606 | 2533 ft | 212 kts | 176° |
| 2026-05-06 12:56 | 39.57174 | 140.25854 | 2960 ft | 228 kts | 177° |
| 2026-05-06 12:56 | 39.55563 | 140.26124 | 3500 ft | 245 kts | 177° |
| 2026-05-06 12:57 | 39.53850 | 140.26419 | 4264 ft | 252 kts | 177° |
| 2026-05-06 12:57 | 39.52102 | 140.26728 | 5165 ft | 255 kts | 177° |
| 2026-05-06 12:57 | 39.50320 | 140.27049 | 6002 ft | 260 kts | 178° |
| 2026-05-06 12:57 | 39.48509 | 140.27377 | 6830 ft | 265 kts | 178° |
| 2026-05-06 12:58 | 39.46663 | 140.27714 | 7606 ft | 270 kts | 178° |
| 2026-05-06 12:58 | 39.44798 | 140.28058 | 8376 ft | 277 kts | 178° |
| 2026-05-06 12:58 | 39.42867 | 140.28409 | 9188 ft | 282 kts | 177° |
| 2026-05-06 12:58 | 39.40905 | 140.28766 | 10016 ft | 288 kts | 177° |
| 2026-05-06 12:59 | 39.38880 | 140.29136 | 10545 ft | 304 kts | 176° |
| 2026-05-06 12:59 | 39.36680 | 140.29536 | 10764 ft | 331 kts | 176° |
| 2026-05-06 12:59 | 39.34348 | 140.29968 | 11433 ft | 343 kts | 175° |
| 2026-05-06 12:59 | 39.31986 | 140.30412 | 12339 ft | 348 kts | 175° |
| 2026-05-06 13:00 | 39.29576 | 140.30867 | 13438 ft | 350 kts | 175° |
| 2026-05-06 13:00 | 39.27156 | 140.31323 | 14434 ft | 353 kts | 175° |
| 2026-05-06 13:00 | 39.24693 | 140.31785 | 15236 ft | 361 kts | 175° |
| 2026-05-06 13:00 | 39.22183 | 140.32253 | 16027 ft | 368 kts | 175° |
| 2026-05-06 13:01 | 39.19619 | 140.32731 | 16873 ft | 374 kts | 175° |
| 2026-05-06 13:01 | 39.17027 | 140.33216 | 17711 ft | 379 kts | 175° |
| 2026-05-06 13:01 | 39.14424 | 140.33702 | 18496 ft | 385 kts | 175° |
| 2026-05-06 13:01 | 39.11715 | 140.34206 | 19203 ft | 391 kts | 175° |
| 2026-05-06 13:02 | 39.09043 | 140.34702 | 19895 ft | 396 kts | 175° |
| 2026-05-06 13:02 | 39.06291 | 140.35033 | 20558 ft | 399 kts | 181° |
| 2026-05-06 13:02 | 39.03493 | 140.35105 | 21223 ft | 403 kts | 183° |
| 2026-05-06 13:02 | 39.00665 | 140.35085 | 21907 ft | 408 kts | 184° |
| 2026-05-06 13:03 | 38.97805 | 140.35052 | 22580 ft | 413 kts | 184° |
| 2026-05-06 13:03 | 38.94911 | 140.35035 | 23256 ft | 419 kts | 183° |
| 2026-05-06 13:03 | 38.91984 | 140.35041 | 23924 ft | 423 kts | 183° |
| 2026-05-06 13:03 | 38.89063 | 140.35066 | 24546 ft | 426 kts | 183° |
| 2026-05-06 13:04 | 38.86081 | 140.35104 | 25184 ft | 430 kts | 183° |
| 2026-05-06 13:04 | 38.83071 | 140.35148 | 25819 ft | 433 kts | 183° |
| 2026-05-06 13:04 | 38.80029 | 140.35193 | 26413 ft | 437 kts | 184° |
| 2026-05-06 13:04 | 38.77004 | 140.35239 | 26973 ft | 441 kts | 184° |
| 2026-05-06 13:05 | 38.73887 | 140.35285 | 27537 ft | 445 kts | 184° |
| 2026-05-06 13:05 | 38.70823 | 140.35330 | 28083 ft | 448 kts | 184° |
| 2026-05-06 13:05 | 38.67650 | 140.35377 | 28623 ft | 452 kts | 184° |
| 2026-05-06 13:05 | 38.64535 | 140.35422 | 29155 ft | 454 kts | 184° |
| 2026-05-06 13:06 | 38.61378 | 140.35470 | 29818 ft | 454 kts | 184° |
| 2026-05-06 13:06 | 38.58214 | 140.35517 | 30150 ft | 453 kts | 185° |
| 2026-05-06 13:06 | 38.55075 | 140.35565 | 30121 ft | 450 kts | 185° |
| 2026-05-06 13:07 | 38.48800 | 140.35656 | 30130 ft | 451 kts | 185° |
| 2026-05-06 13:07 | 38.42520 | 140.35747 | 30122 ft | 451 kts | 185° |
| 2026-05-06 13:08 | 38.36290 | 140.36580 | 30122 ft | 462 kts | 167° |
| 2026-05-06 13:08 | 38.30237 | 140.39405 | 30121 ft | 463 kts | 165° |
| 2026-05-06 13:09 | 38.24185 | 140.42187 | 30119 ft | 461 kts | 167° |
| 2026-05-06 13:09 | 38.18117 | 140.44809 | 30127 ft | 460 kts | 167° |
| 2026-05-06 13:10 | 38.12063 | 140.47418 | 30117 ft | 458 kts | 167° |
| 2026-05-06 13:10 | 38.06080 | 140.50011 | 30113 ft | 456 kts | 168° |
| 2026-05-06 13:11 | 38.00066 | 140.52617 | 30112 ft | 455 kts | 168° |
| 2026-05-06 13:11 | 37.94494 | 140.55023 | 30122 ft | 454 kts | 168° |
| 2026-05-06 13:12 | 37.88547 | 140.57588 | 30124 ft | 453 kts | 169° |
| 2026-05-06 13:12 | 37.83584 | 140.59726 | 30117 ft | 452 kts | 170° |
| 2026-05-06 13:13 | 37.77618 | 140.62161 | 30125 ft | 441 kts | 177° |
| 2026-05-06 13:13 | 37.74622 | 140.62647 | 30120 ft | 427 kts | 187° |
| 2026-05-06 13:13 | 37.71691 | 140.62551 | 30129 ft | 416 kts | 195° |
| 2026-05-06 13:13 | 37.68919 | 140.61930 | 30138 ft | 405 kts | 202° |
| 2026-05-06 13:14 | 37.66174 | 140.61110 | 30130 ft | 405 kts | 202° |
| 2026-05-06 13:14 | 37.60694 | 140.59474 | 30137 ft | 404 kts | 202° |
| 2026-05-06 13:15 | 37.55207 | 140.57876 | 30130 ft | 404 kts | 202° |
| 2026-05-06 13:15 | 37.49723 | 140.56302 | 30138 ft | 403 kts | 202° |
| 2026-05-06 13:16 | 37.44280 | 140.54748 | 30131 ft | 401 kts | 202° |
| 2026-05-06 13:16 | 37.38846 | 140.53200 | 30131 ft | 399 kts | 202° |
| 2026-05-06 13:16 | 37.36176 | 140.52446 | 30110 ft | 385 kts | 202° |
| 2026-05-06 13:17 | 37.33646 | 140.51734 | 30101 ft | 368 kts | 203° |
| 2026-05-06 13:17 | 37.31200 | 140.51041 | 30110 ft | 353 kts | 204° |
| 2026-05-06 13:17 | 37.28849 | 140.50372 | 30117 ft | 343 kts | 204° |
| 2026-05-06 13:18 | 37.24217 | 140.49038 | 30127 ft | 345 kts | 204° |
| 2026-05-06 13:18 | 37.19520 | 140.47682 | 30116 ft | 337 kts | 204° |
| 2026-05-06 13:19 | 37.15014 | 140.46405 | 30108 ft | 327 kts | 204° |
| 2026-05-06 13:19 | 37.12823 | 140.45792 | 30070 ft | 315 kts | 205° |
| 2026-05-06 13:19 | 37.10702 | 140.45196 | 29868 ft | 309 kts | 205° |
| 2026-05-06 13:19 | 37.08608 | 140.44603 | 29532 ft | 307 kts | 205° |
| 2026-05-06 13:20 | 37.06545 | 140.44012 | 29205 ft | 312 kts | 205° |
| 2026-05-06 13:20 | 37.04372 | 140.43381 | 28814 ft | 330 kts | 204° |
| 2026-05-06 13:20 | 37.02096 | 140.42729 | 28366 ft | 339 kts | 203° |
| 2026-05-06 13:20 | 36.99799 | 140.42088 | 27928 ft | 338 kts | 202° |
| 2026-05-06 13:21 | 36.97509 | 140.41451 | 27495 ft | 335 kts | 202° |
| 2026-05-06 13:21 | 36.95240 | 140.40817 | 27066 ft | 333 kts | 202° |
| 2026-05-06 13:21 | 36.92980 | 140.40181 | 26645 ft | 331 kts | 202° |
| 2026-05-06 13:21 | 36.90738 | 140.39553 | 26243 ft | 329 kts | 201° |
| 2026-05-06 13:22 | 36.88505 | 140.38929 | 25846 ft | 328 kts | 201° |
| 2026-05-06 13:22 | 36.86268 | 140.38305 | 25435 ft | 328 kts | 201° |
| 2026-05-06 13:22 | 36.84051 | 140.37687 | 25028 ft | 329 kts | 201° |
| 2026-05-06 13:22 | 36.81820 | 140.37065 | 24625 ft | 327 kts | 200° |
| 2026-05-06 13:23 | 36.79590 | 140.36443 | 24200 ft | 328 kts | 200° |
| 2026-05-06 13:23 | 36.77362 | 140.35823 | 23800 ft | 328 kts | 200° |
| 2026-05-06 13:23 | 36.75119 | 140.35199 | 23330 ft | 330 kts | 200° |
| 2026-05-06 13:23 | 36.72860 | 140.34651 | 22901 ft | 331 kts | 197° |
| 2026-05-06 13:24 | 36.70612 | 140.34198 | 22486 ft | 331 kts | 196° |
| 2026-05-06 13:24 | 36.68334 | 140.33752 | 22076 ft | 330 kts | 196° |
| 2026-05-06 13:24 | 36.66073 | 140.33302 | 21665 ft | 329 kts | 196° |
| 2026-05-06 13:24 | 36.63825 | 140.32847 | 21264 ft | 327 kts | 196° |
| 2026-05-06 13:25 | 36.61570 | 140.32391 | 20859 ft | 326 kts | 195° |
| 2026-05-06 13:25 | 36.59332 | 140.31940 | 20454 ft | 325 kts | 195° |
| 2026-05-06 13:25 | 36.57094 | 140.31490 | 20047 ft | 325 kts | 195° |
| 2026-05-06 13:25 | 36.54887 | 140.31046 | 19646 ft | 325 kts | 195° |
| 2026-05-06 13:26 | 36.52624 | 140.30591 | 19229 ft | 325 kts | 194° |
| 2026-05-06 13:26 | 36.50422 | 140.30149 | 18820 ft | 325 kts | 194° |
| 2026-05-06 13:26 | 36.48182 | 140.29699 | 18383 ft | 326 kts | 194° |
| 2026-05-06 13:26 | 36.45945 | 140.29250 | 17910 ft | 326 kts | 193° |
| 2026-05-06 13:27 | 36.43707 | 140.28801 | 17464 ft | 325 kts | 193° |
| 2026-05-06 13:27 | 36.41471 | 140.28354 | 17032 ft | 325 kts | 193° |
| 2026-05-06 13:27 | 36.39243 | 140.27909 | 16605 ft | 324 kts | 193° |
| 2026-05-06 13:27 | 36.37019 | 140.27467 | 16179 ft | 323 kts | 192° |
| 2026-05-06 13:28 | 36.34807 | 140.27029 | 15750 ft | 322 kts | 192° |
| 2026-05-06 13:28 | 36.32598 | 140.26591 | 15334 ft | 321 kts | 192° |
| 2026-05-06 13:28 | 36.30390 | 140.26153 | 14922 ft | 320 kts | 192° |
| 2026-05-06 13:28 | 36.28186 | 140.25716 | 14419 ft | 322 kts | 192° |
| 2026-05-06 13:29 | 36.25967 | 140.25276 | 13945 ft | 323 kts | 192° |
| 2026-05-06 13:29 | 36.23765 | 140.24841 | 13463 ft | 323 kts | 192° |
| 2026-05-06 13:29 | 36.21545 | 140.24402 | 13021 ft | 322 kts | 192° |
| 2026-05-06 13:29 | 36.19357 | 140.23970 | 12786 ft | 314 kts | 192° |
| 2026-05-06 13:30 | 36.17229 | 140.23548 | 12546 ft | 306 kts | 192° |
| 2026-05-06 13:30 | 36.15155 | 140.23137 | 12331 ft | 298 kts | 192° |
| 2026-05-06 13:30 | 36.13114 | 140.22732 | 12121 ft | 294 kts | 192° |
| 2026-05-06 13:30 | 36.11162 | 140.22344 | 11922 ft | 292 kts | 193° |
| 2026-05-06 13:31 | 36.09540 | 140.22022 | 11763 ft | 290 kts | 193° |
| 2026-05-06 13:31 | 36.07550 | 140.21631 | 11559 ft | 289 kts | 193° |
| 2026-05-06 13:31 | 36.05566 | 140.21243 | 11355 ft | 287 kts | 193° |
| 2026-05-06 13:31 | 36.03599 | 140.20861 | 11154 ft | 286 kts | 193° |
| 2026-05-06 13:32 | 36.01645 | 140.20530 | 11031 ft | 282 kts | 191° |
| 2026-05-06 13:32 | 35.99730 | 140.20262 | 10850 ft | 281 kts | 190° |
| 2026-05-06 13:32 | 35.97779 | 140.19998 | 10684 ft | 281 kts | 191° |
| 2026-05-06 13:32 | 35.96493 | 140.19823 | 10559 ft | 281 kts | 191° |
| 2026-05-06 13:33 | 35.95220 | 140.19648 | 10441 ft | 281 kts | 191° |
| 2026-05-06 13:33 | 35.93303 | 140.19383 | 10252 ft | 280 kts | 191° |
| 2026-05-06 13:33 | 35.91382 | 140.19116 | 10062 ft | 274 kts | 191° |
| 2026-05-06 13:33 | 35.89513 | 140.18854 | 9842 ft | 267 kts | 191° |
| 2026-05-06 13:34 | 35.87676 | 140.18595 | 9669 ft | 263 kts | 191° |
| 2026-05-06 13:34 | 35.85867 | 140.18338 | 9494 ft | 261 kts | 191° |
| 2026-05-06 13:34 | 35.84049 | 140.18078 | 9200 ft | 264 kts | 191° |
| 2026-05-06 13:34 | 35.82361 | 140.17837 | 8921 ft | 262 kts | 191° |
| 2026-05-06 13:35 | 35.81325 | 140.17689 | 8742 ft | 261 kts | 191° |
| 2026-05-06 13:35 | 35.79956 | 140.17494 | 8516 ft | 259 kts | 191° |
| 2026-05-06 13:35 | 35.78165 | 140.17238 | 8219 ft | 258 kts | 191° |
| 2026-05-06 13:35 | 35.76388 | 140.16985 | 7926 ft | 256 kts | 190° |
| 2026-05-06 13:36 | 35.74624 | 140.16734 | 7627 ft | 254 kts | 190° |
| 2026-05-06 13:36 | 35.72886 | 140.16486 | 7335 ft | 253 kts | 190° |
| 2026-05-06 13:36 | 35.71137 | 140.16237 | 7044 ft | 251 kts | 190° |
| 2026-05-06 13:36 | 35.69397 | 140.15989 | 6749 ft | 250 kts | 190° |
| 2026-05-06 13:37 | 35.67693 | 140.15746 | 6468 ft | 249 kts | 189° |
| 2026-05-06 13:37 | 35.65968 | 140.15501 | 6169 ft | 247 kts | 189° |
| 2026-05-06 13:37 | 35.64262 | 140.15259 | 5864 ft | 246 kts | 189° |
| 2026-05-06 13:37 | 35.62577 | 140.15020 | 5562 ft | 245 kts | 189° |
| 2026-05-06 13:38 | 35.60888 | 140.14780 | 5322 ft | 242 kts | 189° |
| 2026-05-06 13:38 | 35.59256 | 140.14548 | 5124 ft | 241 kts | 189° |
| 2026-05-06 13:38 | 35.57530 | 140.14302 | 4932 ft | 244 kts | 189° |
| 2026-05-06 13:38 | 35.55852 | 140.14064 | 4757 ft | 246 kts | 189° |
| 2026-05-06 13:39 | 35.54157 | 140.13824 | 4550 ft | 244 kts | 189° |
| 2026-05-06 13:39 | 35.52481 | 140.13588 | 4330 ft | 240 kts | 189° |
| 2026-05-06 13:39 | 35.50839 | 140.13354 | 4138 ft | 236 kts | 189° |
| 2026-05-06 13:39 | 35.49217 | 140.13124 | 4073 ft | 232 kts | 189° |
| 2026-05-06 13:40 | 35.47620 | 140.12898 | 4014 ft | 230 kts | 189° |
| 2026-05-06 13:40 | 35.46043 | 140.12675 | 4005 ft | 227 kts | 189° |
| 2026-05-06 13:40 | 35.44478 | 140.12454 | 4005 ft | 226 kts | 189° |
| 2026-05-06 13:40 | 35.42934 | 140.12236 | 4002 ft | 226 kts | 189° |
| 2026-05-06 13:41 | 35.41368 | 140.12014 | 3992 ft | 227 kts | 189° |
| 2026-05-06 13:41 | 35.39796 | 140.11792 | 4007 ft | 227 kts | 189° |
| 2026-05-06 13:41 | 35.38225 | 140.11570 | 4008 ft | 226 kts | 189° |
| 2026-05-06 13:41 | 35.36670 | 140.11351 | 4002 ft | 223 kts | 189° |
| 2026-05-06 13:42 | 35.35131 | 140.11134 | 3986 ft | 221 kts | 189° |
| 2026-05-06 13:42 | 35.33610 | 140.10920 | 3999 ft | 219 kts | 189° |
| 2026-05-06 13:42 | 35.32092 | 140.10706 | 3993 ft | 219 kts | 189° |
| 2026-05-06 13:42 | 35.30585 | 140.10461 | 3985 ft | 215 kts | 196° |
| 2026-05-06 13:43 | 35.29322 | 140.09581 | 4015 ft | 215 kts | 224° |
| 2026-05-06 13:43 | 35.28414 | 140.08100 | 4013 ft | 221 kts | 237° |
| 2026-05-06 13:43 | 35.27640 | 140.06470 | 4003 ft | 220 kts | 238° |
| 2026-05-06 13:43 | 35.26942 | 140.04827 | 3981 ft | 214 kts | 250° |
| 2026-05-06 13:44 | 35.26852 | 140.02971 | 4019 ft | 226 kts | 276° |
| 2026-05-06 13:44 | 35.27395 | 140.01132 | 4013 ft | 234 kts | 294° |
| 2026-05-06 13:44 | 35.28200 | 139.99404 | 4005 ft | 233 kts | 298° |
| 2026-05-06 13:44 | 35.29291 | 139.97976 | 4005 ft | 233 kts | 322° |
| 2026-05-06 13:45 | 35.30702 | 139.96949 | 4004 ft | 233 kts | 326° |
| 2026-05-06 13:45 | 35.33356 | 139.95122 | 3973 ft | 206 kts | 326° |
| 2026-05-06 13:45 | 35.34562 | 139.94280 | 3974 ft | 195 kts | 325° |
| 2026-05-06 13:46 | 35.35727 | 139.93458 | 3987 ft | 191 kts | 325° |
| 2026-05-06 13:46 | 35.36870 | 139.92648 | 3879 ft | 188 kts | 325° |
| 2026-05-06 13:46 | 35.37993 | 139.91854 | 3688 ft | 182 kts | 325° |
| 2026-05-06 13:46 | 35.39065 | 139.91095 | 3438 ft | 178 kts | 324° |
| 2026-05-06 13:47 | 35.40126 | 139.90343 | 3185 ft | 173 kts | 324° |
| 2026-05-06 13:47 | 35.41160 | 139.89609 | 2942 ft | 171 kts | 324° |
| 2026-05-06 13:47 | 35.42201 | 139.88869 | 2735 ft | 174 kts | 325° |
| 2026-05-06 13:47 | 35.43257 | 139.88121 | 2516 ft | 175 kts | 325° |
| 2026-05-06 13:48 | 35.44297 | 139.87383 | 2269 ft | 171 kts | 325° |
| 2026-05-06 13:48 | 35.45296 | 139.86676 | 2042 ft | 163 kts | 325° |
| 2026-05-06 13:48 | 35.46249 | 139.86000 | 1815 ft | 153 kts | 325° |
| 2026-05-06 13:48 | 35.47156 | 139.85355 | 1668 ft | 150 kts | 325° |
| 2026-05-06 13:49 | 35.48060 | 139.84712 | 1447 ft | 150 kts | 325° |
| 2026-05-06 13:49 | 35.48962 | 139.84070 | 1249 ft | 149 kts | 326° |
| 2026-05-06 13:49 | 35.49856 | 139.83436 | 1031 ft | 148 kts | 327° |
| 2026-05-06 13:49 | 35.50782 | 139.82775 | 881 ft | 160 kts | 327° |
| 2026-05-06 13:50 | 35.51749 | 139.82091 | 636 ft | 164 kts | 329° |
| 2026-05-06 13:50 | 35.52683 | 139.81439 | 882 ft | 160 kts | 328° |
| 2026-05-06 13:50 | 35.53658 | 139.80744 | 1102 ft | 164 kts | 327° |
| 2026-05-06 13:50 | 35.54688 | 139.80049 | 1328 ft | 173 kts | 328° |
| 2026-05-06 13:51 | 35.55691 | 139.79396 | 1524 ft | 183 kts | 331° |
| 2026-05-06 13:51 | 35.56883 | 139.78873 | 1715 ft | 178 kts | 343° |
| 2026-05-06 13:51 | 35.58186 | 139.78528 | 1592 ft | 202 kts | 336° |
| 2026-05-06 13:51 | 35.59504 | 139.77850 | 1677 ft | 209 kts | 346° |
| 2026-05-06 13:52 | 35.60947 | 139.77958 | 2116 ft | 213 kts | 11° |
| 2026-05-06 13:52 | 35.62426 | 139.78307 | 2664 ft | 218 kts | 7° |
| 2026-05-06 13:52 | 35.63934 | 139.78597 | 3140 ft | 219 kts | 6° |
| 2026-05-06 13:52 | 35.65447 | 139.78857 | 3631 ft | 219 kts | 5° |
| 2026-05-06 13:53 | 35.66965 | 139.79103 | 4140 ft | 221 kts | 4° |
| 2026-05-06 13:53 | 35.68491 | 139.79334 | 4652 ft | 222 kts | 4° |
| 2026-05-06 13:53 | 35.70018 | 139.79553 | 5022 ft | 222 kts | 3° |
| 2026-05-06 13:53 | 35.71659 | 139.79773 | 5025 ft | 246 kts | 4° |
| 2026-05-06 13:54 | 35.73260 | 139.80480 | 5005 ft | 254 kts | 38° |
| 2026-05-06 13:54 | 35.74249 | 139.82252 | 5016 ft | 254 kts | 78° |
| 2026-05-06 13:54 | 35.74219 | 139.84371 | 5023 ft | 247 kts | 112° |
| 2026-05-06 13:54 | 35.73613 | 139.86315 | 5009 ft | 244 kts | 116° |
| 2026-05-06 13:55 | 35.72933 | 139.88235 | 5013 ft | 245 kts | 119° |
| 2026-05-06 13:55 | 35.72223 | 139.90150 | 5014 ft | 247 kts | 118° |
| 2026-05-06 13:55 | 35.71533 | 139.92098 | 5012 ft | 249 kts | 117° |
| 2026-05-06 13:55 | 35.70869 | 139.94064 | 5008 ft | 249 kts | 116° |
| 2026-05-06 13:56 | 35.70228 | 139.96037 | 5003 ft | 247 kts | 115° |
| 2026-05-06 13:56 | 35.69602 | 139.98013 | 4878 ft | 249 kts | 115° |
| 2026-05-06 13:56 | 35.68985 | 140.00001 | 4761 ft | 247 kts | 115° |
| 2026-05-06 13:56 | 35.68386 | 140.01958 | 4606 ft | 243 kts | 114° |
| 2026-05-06 13:57 | 35.67795 | 140.03900 | 4488 ft | 242 kts | 114° |
| 2026-05-06 13:57 | 35.67213 | 140.05817 | 4346 ft | 242 kts | 114° |
| 2026-05-06 13:57 | 35.66624 | 140.07766 | 4234 ft | 242 kts | 114° |
| 2026-05-06 13:57 | 35.66036 | 140.09713 | 4127 ft | 242 kts | 114° |
| 2026-05-06 13:58 | 35.65454 | 140.11645 | 4066 ft | 239 kts | 114° |
| 2026-05-06 13:58 | 35.64875 | 140.13564 | 4020 ft | 238 kts | 114° |
| 2026-05-06 13:58 | 35.64349 | 140.15302 | 3985 ft | 238 kts | 114° |
| 2026-05-06 13:58 | 35.63777 | 140.17193 | 4015 ft | 240 kts | 114° |
| 2026-05-06 13:59 | 35.63026 | 140.18987 | 3978 ft | 231 kts | 138° |
| 2026-05-06 13:59 | 35.61696 | 140.19985 | 4002 ft | 223 kts | 170° |
| 2026-05-06 13:59 | 35.60685 | 140.20130 | 4009 ft | 221 kts | 184° |
| 2026-05-06 13:59 | 35.59171 | 140.19849 | 4001 ft | 221 kts | 195° |
| 2026-05-06 14:00 | 35.57671 | 140.19379 | 4003 ft | 223 kts | 197° |
| 2026-05-06 14:00 | 35.55679 | 140.18718 | 3998 ft | 223 kts | 197° |
| 2026-05-06 14:00 | 35.54689 | 140.18390 | 3997 ft | 223 kts | 197° |
| 2026-05-06 14:00 | 35.53193 | 140.17897 | 4001 ft | 221 kts | 197° |
| 2026-05-06 14:01 | 35.51710 | 140.17412 | 3993 ft | 220 kts | 197° |
| 2026-05-06 14:01 | 35.50232 | 140.16933 | 4003 ft | 218 kts | 197° |
| 2026-05-06 14:01 | 35.48764 | 140.16459 | 3981 ft | 217 kts | 197° |
| 2026-05-06 14:01 | 35.47305 | 140.15991 | 4005 ft | 216 kts | 197° |
| 2026-05-06 14:02 | 35.45854 | 140.15527 | 4004 ft | 216 kts | 197° |
| 2026-05-06 14:02 | 35.44396 | 140.15061 | 3992 ft | 216 kts | 197° |
| 2026-05-06 14:02 | 35.42958 | 140.14603 | 4010 ft | 217 kts | 197° |
| 2026-05-06 14:02 | 35.41492 | 140.14136 | 4010 ft | 218 kts | 197° |
| 2026-05-06 14:03 | 35.40022 | 140.13669 | 4001 ft | 219 kts | 197° |
| 2026-05-06 14:03 | 35.38547 | 140.13200 | 3993 ft | 219 kts | 196° |
| 2026-05-06 14:03 | 35.37071 | 140.12732 | 4012 ft | 219 kts | 196° |
| 2026-05-06 14:03 | 35.35589 | 140.12262 | 4007 ft | 220 kts | 196° |
| 2026-05-06 14:04 | 35.34108 | 140.11793 | 4008 ft | 220 kts | 196° |
| 2026-05-06 14:04 | 35.32638 | 140.11327 | 4005 ft | 220 kts | 196° |
| 2026-05-06 14:04 | 35.31155 | 140.10858 | 4007 ft | 220 kts | 196° |
| 2026-05-06 14:04 | 35.29761 | 140.10176 | 3999 ft | 213 kts | 218° |
| 2026-05-06 14:05 | 35.28779 | 140.08813 | 4007 ft | 218 kts | 236° |
| 2026-05-06 14:05 | 35.27995 | 140.07204 | 4013 ft | 221 kts | 239° |
| 2026-05-06 14:05 | 35.27236 | 140.05574 | 4003 ft | 219 kts | 240° |
| 2026-05-06 14:05 | 35.26813 | 140.03828 | 4007 ft | 218 kts | 266° |
| 2026-05-06 14:06 | 35.27081 | 140.01958 | 4012 ft | 230 kts | 289° |
| 2026-05-06 14:06 | 35.27819 | 140.00192 | 4015 ft | 235 kts | 296° |
| 2026-05-06 14:06 | 35.28735 | 139.98556 | 3990 ft | 233 kts | 312° |
| 2026-05-06 14:06 | 35.30041 | 139.97403 | 4006 ft | 235 kts | 326° |
| 2026-05-06 14:07 | 35.31483 | 139.96410 | 4015 ft | 240 kts | 327° |
| 2026-05-06 14:07 | 35.32951 | 139.95405 | 4002 ft | 242 kts | 327° |
| 2026-05-06 14:07 | 35.34413 | 139.94384 | 3996 ft | 240 kts | 326° |
| 2026-05-06 14:07 | 35.35855 | 139.93366 | 4006 ft | 239 kts | 326° |
| 2026-05-06 14:08 | 35.37290 | 139.92349 | 3801 ft | 246 kts | 326° |
| 2026-05-06 14:08 | 35.38778 | 139.91294 | 3479 ft | 247 kts | 326° |
| 2026-05-06 14:08 | 35.40271 | 139.90237 | 3162 ft | 249 kts | 326° |
| 2026-05-06 14:08 | 35.41774 | 139.89172 | 2829 ft | 250 kts | 326° |
| 2026-05-06 14:09 | 35.43278 | 139.88106 | 2486 ft | 244 kts | 327° |
| 2026-05-06 14:09 | 35.44704 | 139.87098 | 2160 ft | 227 kts | 326° |
| 2026-05-06 14:09 | 35.46032 | 139.86154 | 1867 ft | 212 kts | 326° |
| 2026-05-06 14:09 | 35.47238 | 139.85299 | 1595 ft | 193 kts | 326° |
| 2026-05-06 14:10 | 35.48344 | 139.84513 | 1380 ft | 175 kts | 326° |
| 2026-05-06 14:10 | 35.49367 | 139.83785 | 1134 ft | 164 kts | 327° |
| 2026-05-06 14:10 | 35.50225 | 139.83175 | 960 ft | 152 kts | 327° |
| 2026-05-06 14:10 | 35.51123 | 139.82536 | 764 ft | 145 kts | 327° |
| 2026-05-06 14:11 | 35.51983 | 139.81924 | 620 ft | 147 kts | 329° |
| 2026-05-06 14:11 | 35.52864 | 139.81298 | 386 ft | 147 kts | 329° |
| 2026-05-06 14:11 | 35.53732 | 139.80683 | 197 ft | 136 kts | 329° |
| 2026-05-06 14:11 | 35.54465 | 139.80173 | 35 ft | 112 kts | 330° |
| 2026-05-06 14:12 | 35.55022 | 139.79768 | 34 ft | 69 kts | 329° |
| 2026-05-06 14:12 | 35.55329 | 139.79545 | 32 ft | 45 kts | 326° |
| 2026-05-06 14:12 | 35.55461 | 139.79382 | 29 ft | 23 kts | 304° |
| 2026-05-06 14:12 | 35.55518 | 139.79256 | 28 ft | 14 kts | 293° |
| 2026-05-06 14:13 | 35.55499 | 139.79147 | 30 ft | 10 kts | 240° |
| 2026-05-06 14:13 | 35.55463 | 139.79069 | 30 ft | 11 kts | 240° |
| 2026-05-06 14:13 | 35.55426 | 139.78991 | 31 ft | 11 kts | 240° |
| 2026-05-06 14:13 | 35.55397 | 139.78931 | 32 ft | 7 kts | 241° |
| 2026-05-06 14:14 | 35.55393 | 139.78872 | 31 ft | 7 kts | 279° |
| 2026-05-06 14:14 | 35.55403 | 139.78821 | 31 ft | 3 kts | 284° |
| 2026-05-06 14:14 | 35.55405 | 139.78811 | 32 ft | 1 kts | 284° |
| 2026-05-06 14:14 | 35.55407 | 139.78802 | 32 ft | 1 kts | 284° |
| 2026-05-06 14:15 | 35.55408 | 139.78795 | 32 ft | 0 kts | 284° |